Sims, Kansas
Current Conditions -  °F | °C
As of 5:56 PM on Thursday 18 Dec 2014 (Local Time) from KJLN Reporting Station
Overcast Overcast  
Wind Chill: 38°   Ceiling: 1300
Heat Index: 38°   Visibility: 9mi
Dew Point: 36°   Wind: 3mph
Humidity: 93%   Direction: 10°N
Pressure: 30.19"   Gusts: NA
Location:  37.0595°N, 94.7764°W
Report Text: KJLN 182356Z 01003KT 9SM OVC013 03/02 A3019 RMK AO2 T00330022
Loading
Personal Weather Stations






























Interactive Weather Map New forecast layout! Learn more

10-Day Weather Forecast

Advertisements
Track Severe Weather on mobile